Time;durP1;ratioP1;P1;durP2;ratioP2;P2;SDS_P1;SDS_P2;PMS_P1;PMS_P2;Temp;Humidity;BMP_temperature;BMP_pressure;BME280_temperature;BME280_humidity;BME280_pressure;Samples;Min_cycle;Max_cycle;Signal;HPM_P1;HPM_P2
2024/04/18 00:01:18;;;;;;;2.90;1.67;;;;;;;;;;5442644;26;19999;-74
2024/04/18 00:03:44;;;;;;;3.08;1.80;;;;;;;;;;5449568;26;20471;-76
2024/04/18 00:06:11;;;;;;;4.22;2.17;;;;;;;;;;5436061;26;20035;-75
2024/04/18 00:08:38;;;;;;;2.63;1.83;;;;;;;;;;5449236;26;20387;-75
2024/04/18 00:11:04;;;;;;;4.10;2.10;;;;;;;;;;5448760;26;20014;-75
2024/04/18 00:13:31;;;;;;;4.55;2.20;;;;;;;;;;5437625;26;20010;-75
2024/04/18 00:15:57;;;;;;;2.05;1.55;;;;;;;;;;5437855;26;20568;-73
2024/04/18 00:18:24;;;;;;;3.30;2.10;;;;;;;;;;5416441;26;20010;-74
2024/04/18 00:20:50;;;;;;;3.90;2.20;;;;;;;;;;5443560;26;20038;-73
2024/04/18 00:23:17;;;;;;;10.15;4.40;;;;;;;;;;5430329;26;20619;-73
2024/04/18 00:25:43;;;;;;;6.57;4.60;;;;;;;;;;5452125;26;20426;-73
2024/04/18 00:28:10;;;;;;;6.40;3.72;;;;;;;;;;5451655;26;20030;-74
2024/04/18 00:30:36;;;;;;;7.55;4.22;;;;;;;;;;5435645;26;20039;-73
2024/04/18 00:33:03;;;;;;;5.72;4.15;;;;;;;;;;5461156;26;20076;-73
2024/04/18 00:35:30;;;;;;;5.93;3.55;;;;;;;;;;5425786;26;19999;-75
2024/04/18 00:37:57;;;;;;;5.60;3.30;;;;;;;;;;5446581;26;20022;-73
2024/04/18 00:40:24;;;;;;;7.95;2.80;;;;;;;;;;5471144;26;19999;-74
2024/04/18 00:42:50;;;;;;;7.95;3.22;;;;;;;;;;5449798;26;20508;-76
2024/04/18 00:45:19;;;;;;;4.03;2.22;;;;;;;;;;5416426;26;20006;-75
2024/04/18 00:47:47;;;;;;;4.72;2.10;;;;;;;;;;5447378;26;20007;-74
2024/04/18 00:50:14;;;;;;;;;;;;;;;;;;5445188;26;20007;-74
2024/04/18 00:52:41;;;;;;;3.20;1.50;;;;;;;;;;5446505;26;19931;-76
2024/04/18 00:55:09;;;;;;;3.38;1.45;;;;;;;;;;5465119;26;20013;-75
2024/04/18 00:57:36;;;;;;;4.05;1.92;;;;;;;;;;5446815;26;19999;-73
2024/04/18 01:00:03;;;;;;;2.33;1.42;;;;;;;;;;5446384;26;20086;-74
2024/04/18 01:02:29;;;;;;;2.35;1.45;;;;;;;;;;5455279;26;20442;-73
2024/04/18 01:04:57;;;;;;;2.65;1.23;;;;;;;;;;5460380;26;20335;-73
2024/04/18 01:07:24;;;;;;;3.05;1.45;;;;;;;;;;5455671;26;20006;-73
2024/04/18 01:09:51;;;;;;;2.92;1.27;;;;;;;;;;5453741;26;20006;-73
2024/04/18 01:12:17;;;;;;;2.97;1.20;;;;;;;;;;5452684;26;19999;-74
2024/04/18 01:14:44;;;;;;;2.90;1.80;;;;;;;;;;5419208;26;20576;-75
2024/04/18 01:17:10;;;;;;;3.20;1.60;;;;;;;;;;5449917;26;20009;-70
2024/04/18 01:19:38;;;;;;;4.53;1.60;;;;;;;;;;5476852;26;20013;-70
2024/04/18 01:22:04;;;;;;;4.95;1.45;;;;;;;;;;5459121;26;20493;-72
2024/04/18 01:24:31;;;;;;;2.88;1.58;;;;;;;;;;5430554;26;20017;-70
2024/04/18 01:26:58;;;;;;;2.60;1.20;;;;;;;;;;5475728;26;20460;-70
2024/04/18 01:29:26;;;;;;;5.28;1.40;;;;;;;;;;5431952;26;21427;-71
2024/04/18 01:31:53;;;;;;;3.90;1.30;;;;;;;;;;5430403;26;20013;-69
2024/04/18 01:34:19;;;;;;;2.08;1.27;;;;;;;;;;5433585;26;19998;-71
2024/04/18 01:36:46;;;;;;;3.47;1.45;;;;;;;;;;5432006;26;20002;-69
2024/04/18 01:39:14;;;;;;;3.38;1.50;;;;;;;;;;5456938;26;20023;-69
2024/04/18 01:41:40;;;;;;;3.78;1.40;;;;;;;;;;5454802;26;20038;-70
2024/04/18 01:44:07;;;;;;;3.33;1.23;;;;;;;;;;5464991;26;19999;-69
2024/04/18 01:46:33;;;;;;;2.72;1.23;;;;;;;;;;5465568;26;20550;-69
2024/04/18 01:49:00;;;;;;;4.82;1.20;;;;;;;;;;5449546;26;21555;-72
2024/04/18 01:51:26;;;;;;;1.90;1.08;;;;;;;;;;5438288;26;19998;-70
2024/04/18 01:53:53;;;;;;;1.83;1.00;;;;;;;;;;5455657;26;20158;-71
2024/04/18 01:56:19;;;;;;;4.40;1.27;;;;;;;;;;5466935;26;20006;-71
2024/04/18 01:58:46;;;;;;;4.20;1.30;;;;;;;;;;5428138;26;20463;-72
2024/04/18 02:01:12;;;;;;;5.00;1.58;;;;;;;;;;5460002;26;20021;-69
2024/04/18 02:03:40;;;;;;;4.55;1.27;;;;;;;;;;5466533;26;20935;-71
2024/04/18 02:06:07;;;;;;;3.67;1.48;;;;;;;;;;5442347;26;20074;-69
2024/04/18 02:08:33;;;;;;;4.53;1.38;;;;;;;;;;5440978;26;19999;-70
2024/04/18 02:11:00;;;;;;;4.07;1.40;;;;;;;;;;5424404;26;20621;-71
2024/04/18 02:13:27;;;;;;;3.03;1.30;;;;;;;;;;5467594;26;20017;-69
2024/04/18 02:15:53;;;;;;;5.47;1.60;;;;;;;;;;5461322;26;20327;-69
2024/04/18 02:18:20;;;;;;;2.58;1.45;;;;;;;;;;5445745;26;19994;-70
2024/04/18 02:20:46;;;;;;;3.50;1.27;;;;;;;;;;5440387;26;20006;-71
2024/04/18 02:23:13;;;;;;;2.88;1.30;;;;;;;;;;5435847;26;20010;-70
2024/04/18 02:25:39;;;;;;;3.88;1.40;;;;;;;;;;5446215;26;20070;-70
2024/04/18 02:28:06;;;;;;;3.33;1.20;;;;;;;;;;5467810;26;20002;-69
2024/04/18 02:30:32;;;;;;;2.03;1.35;;;;;;;;;;5487642;26;20097;-70
2024/04/18 02:32:59;;;;;;;2.28;1.50;;;;;;;;;;5444411;26;20019;-71
2024/04/18 02:35:25;;;;;;;4.13;1.35;;;;;;;;;;5455949;26;20026;-69
2024/04/18 02:37:52;;;;;;;4.25;1.40;;;;;;;;;;5468806;26;19998;-69
2024/04/18 02:40:19;;;;;;;4.18;1.70;;;;;;;;;;5430426;26;19999;-69
2024/04/18 02:42:46;;;;;;;1.38;1.15;;;;;;;;;;5467458;26;20469;-70
2024/04/18 02:45:13;;;;;;;2.30;1.20;;;;;;;;;;5446929;26;20065;-70
2024/04/18 02:47:39;;;;;;;4.45;1.42;;;;;;;;;;5429694;26;20325;-69
2024/04/18 02:50:06;;;;;;;4.32;1.10;;;;;;;;;;5434159;26;20017;-69
2024/04/18 02:52:33;;;;;;;3.55;1.38;;;;;;;;;;5462001;26;20017;-69
2024/04/18 02:54:59;;;;;;;11.07;1.70;;;;;;;;;;5446591;26;20014;-70
2024/04/18 02:57:26;;;;;;;2.60;1.40;;;;;;;;;;5453651;26;20766;-71
2024/04/18 02:59:52;;;;;;;2.90;1.33;;;;;;;;;;5453331;26;20531;-69
2024/04/18 03:02:19;;;;;;;3.95;1.65;;;;;;;;;;5421500;26;19998;-69
2024/04/18 03:04:46;;;;;;;3.03;1.38;;;;;;;;;;5455756;26;20039;-69
2024/04/18 03:07:12;;;;;;;6.70;1.55;;;;;;;;;;5389912;26;20075;-70
2024/04/18 03:09:39;;;;;;;5.00;1.30;;;;;;;;;;5458491;26;20002;-70
2024/04/18 03:12:05;;;;;;;6.30;1.33;;;;;;;;;;5443746;26;21392;-72
2024/04/18 03:14:32;;;;;;;5.43;1.27;;;;;;;;;;5471883;26;20086;-70
2024/04/18 03:16:58;;;;;;;2.40;1.27;;;;;;;;;;5432977;26;19998;-69
2024/04/18 03:19:25;;;;;;;2.28;1.38;;;;;;;;;;5442441;26;20014;-70
2024/04/18 03:21:52;;;;;;;2.85;1.25;;;;;;;;;;5442106;26;20018;-70
2024/04/18 03:24:19;;;;;;;6.80;1.67;;;;;;;;;;5462659;26;20055;-69
2024/04/18 03:26:47;;;;;;;3.42;1.50;;;;;;;;;;5480461;26;20020;-69
2024/04/18 03:29:13;;;;;;;3.03;1.23;;;;;;;;;;5428314;26;20005;-70
2024/04/18 03:31:40;;;;;;;4.70;1.40;;;;;;;;;;5465702;26;20003;-71
2024/04/18 03:34:07;;;;;;;2.05;1.25;;;;;;;;;;5443227;26;19998;-69
2024/04/18 03:36:36;;;;;;;3.38;1.25;;;;;;;;;;5457682;26;20013;-70
2024/04/18 03:39:02;;;;;;;2.45;1.20;;;;;;;;;;5439973;26;20432;-70
2024/04/18 03:41:32;;;;;;;5.82;1.50;;;;;;;;;;5433196;26;20009;-69
2024/04/18 03:43:58;;;;;;;3.92;1.30;;;;;;;;;;5455490;26;20002;-69
2024/04/18 03:46:25;;;;;;;4.72;1.48;;;;;;;;;;5434905;26;20007;-71
2024/04/18 03:48:52;;;;;;;2.83;1.40;;;;;;;;;;5462318;26;19998;-69
2024/04/18 03:51:18;;;;;;;3.30;1.65;;;;;;;;;;5439244;26;20019;-71
2024/04/18 03:53:45;;;;;;;7.47;1.92;;;;;;;;;;5448032;26;20030;-71
2024/04/18 03:56:11;;;;;;;4.97;1.52;;;;;;;;;;5456844;26;20018;-69
2024/04/18 03:58:38;;;;;;;5.57;1.60;;;;;;;;;;5416793;26;20005;-69
2024/04/18 04:01:04;;;;;;;5.75;1.40;;;;;;;;;;5430844;26;20002;-70
2024/04/18 04:03:31;;;;;;;2.95;1.40;;;;;;;;;;5406491;26;20033;-71
2024/04/18 04:05:58;;;;;;;3.95;1.23;;;;;;;;;;5407745;26;20014;-69
2024/04/18 04:08:24;;;;;;;4.72;1.30;;;;;;;;;;5434634;26;20011;-69
2024/04/18 04:10:51;;;;;;;4.25;1.13;;;;;;;;;;5441614;26;20010;-69
2024/04/18 04:13:17;;;;;;;4.20;1.63;;;;;;;;;;5441698;26;20013;-70
2024/04/18 04:15:47;;;;;;;4.18;1.50;;;;;;;;;;5453079;26;20003;-69
2024/04/18 04:18:14;;;;;;;4.60;1.42;;;;;;;;;;5471594;26;19998;-69
2024/04/18 04:20:41;;;;;;;3.58;1.40;;;;;;;;;;5417203;26;19999;-70
2024/04/18 04:23:08;;;;;;;4.88;1.48;;;;;;;;;;5427821;26;20091;-69
2024/04/18 04:25:35;;;;;;;5.53;1.30;;;;;;;;;;5442462;26;20007;-69
2024/04/18 04:28:01;;;;;;;2.95;1.20;;;;;;;;;;5452926;26;20449;-70
2024/04/18 04:30:28;;;;;;;3.78;1.35;;;;;;;;;;5463312;26;20049;-69
2024/04/18 04:32:54;;;;;;;5.10;1.38;;;;;;;;;;5447983;26;20014;-70
2024/04/18 04:35:21;;;;;;;4.93;1.42;;;;;;;;;;5442829;26;20454;-70
2024/04/18 04:37:47;;;;;;;4.97;1.67;;;;;;;;;;5436302;26;20002;-69
2024/04/18 04:40:14;;;;;;;3.67;1.40;;;;;;;;;;5450258;26;19999;-70
2024/04/18 04:42:40;;;;;;;3.83;1.23;;;;;;;;;;5466732;26;20017;-71
2024/04/18 04:45:07;;;;;;;3.15;1.27;;;;;;;;;;5455687;26;20008;-70
2024/04/18 04:47:33;;;;;;;2.95;1.20;;;;;;;;;;5473876;26;20009;-75
2024/04/18 04:50:00;;;;;;;3.28;1.35;;;;;;;;;;5443315;26;20014;-75
2024/04/18 04:52:26;;;;;;;3.33;1.30;;;;;;;;;;5446145;26;20010;-75
2024/04/18 04:54:53;;;;;;;3.70;1.30;;;;;;;;;;5446786;26;19998;-74
2024/04/18 04:57:20;;;;;;;7.18;1.55;;;;;;;;;;5452700;26;20003;-74
2024/04/18 04:59:46;;;;;;;9.63;1.60;;;;;;;;;;5443070;26;19998;-74
2024/04/18 05:02:13;;;;;;;4.80;1.70;;;;;;;;;;5428936;26;19999;-75
2024/04/18 05:04:39;;;;;;;5.05;2.10;;;;;;;;;;5408970;26;20002;-75
2024/04/18 05:07:06;;;;;;;3.58;1.15;;;;;;;;;;5406534;26;20003;-74
2024/04/18 05:09:32;;;;;;;4.55;1.60;;;;;;;;;;5396784;26;20810;-74
2024/04/18 05:11:59;;;;;;;5.88;1.90;;;;;;;;;;5465415;26;20006;-73
2024/04/18 05:14:26;;;;;;;6.28;1.33;;;;;;;;;;5439995;26;20003;-74
2024/04/18 05:16:53;;;;;;;2.60;1.42;;;;;;;;;;5454154;26;20014;-73
2024/04/18 05:19:22;;;;;;;4.82;1.30;;;;;;;;;;5446710;26;20015;-74
2024/04/18 05:21:48;;;;;;;4.65;1.70;;;;;;;;;;5444124;26;20013;-73
2024/04/18 05:24:15;;;;;;;5.75;1.67;;;;;;;;;;5475718;26;20714;-75
2024/04/18 05:26:43;;;;;;;5.13;1.85;;;;;;;;;;5469101;26;19998;-74
2024/04/18 05:31:54;;;;;;;8.48;2.63;;;;;;;;;;5445682;26;20040;-73
2024/04/18 05:34:21;;;;;;;6.57;2.72;;;;;;;;;;5428173;26;20255;-73
2024/04/18 05:36:47;;;;;;;3.70;1.80;;;;;;;;;;5443316;26;20091;-74
2024/04/18 05:39:14;;;;;;;6.15;1.98;;;;;;;;;;5451075;26;20002;-74
2024/04/18 05:41:41;;;;;;;6.10;1.90;;;;;;;;;;5458455;26;19994;-73
2024/04/18 05:44:08;;;;;;;8.60;2.40;;;;;;;;;;5459344;26;20790;-73
2024/04/18 05:46:34;;;;;;;8.88;3.60;;;;;;;;;;5444704;26;19999;-73
2024/04/18 05:49:01;;;;;;;4.85;2.20;;;;;;;;;;5472533;26;20013;-76
2024/04/18 05:51:27;;;;;;;4.28;1.90;;;;;;;;;;5452431;26;20754;-75
2024/04/18 05:53:54;;;;;;;3.47;1.70;;;;;;;;;;5464338;26;20535;-75
2024/04/18 05:56:20;;;;;;;6.05;2.03;;;;;;;;;;5445305;26;20757;-74
2024/04/18 05:58:47;;;;;;;6.15;2.00;;;;;;;;;;5429106;26;20006;-74
2024/04/18 06:01:13;;;;;;;11.38;3.38;;;;;;;;;;5443434;26;20005;-76
2024/04/18 06:03:40;;;;;;;10.88;4.20;;;;;;;;;;5449037;26;20002;-75
2024/04/18 06:06:07;;;;;;;5.85;2.60;;;;;;;;;;5464049;26;20014;-73
2024/04/18 06:08:33;;;;;;;5.65;1.92;;;;;;;;;;5433853;26;20585;-72
2024/04/18 06:11:00;;;;;;;5.25;1.88;;;;;;;;;;5427654;26;20014;-74
2024/04/18 06:13:27;;;;;;;6.25;2.28;;;;;;;;;;5430118;26;20013;-75
2024/04/18 06:15:53;;;;;;;3.45;1.90;;;;;;;;;;5443613;26;20026;-75
2024/04/18 06:18:20;;;;;;;7.22;1.90;;;;;;;;;;5432091;26;20014;-75
2024/04/18 06:20:50;;;;;;;6.32;1.80;;;;;;;;;;5428932;26;20046;-74
2024/04/18 06:23:16;;;;;;;4.13;1.90;;;;;;;;;;5464168;26;19998;-74
2024/04/18 06:25:43;;;;;;;5.60;1.35;;;;;;;;;;5436240;26;20009;-73
2024/04/18 06:28:10;;;;;;;2.13;1.30;;;;;;;;;;5410961;26;20745;-74
2024/04/18 06:30:40;;;;;;;4.88;1.77;;;;;;;;;;5475528;26;20006;-73
2024/04/18 06:33:07;;;;;;;4.63;1.48;;;;;;;;;;5458640;26;20478;-74
2024/04/18 06:35:34;;;;;;;5.00;1.58;;;;;;;;;;5454411;26;20006;-73
2024/04/18 06:38:01;;;;;;;3.28;1.25;;;;;;;;;;5465576;26;20005;-73
2024/04/18 06:40:28;;;;;;;6.03;1.60;;;;;;;;;;5441656;26;20031;-68
2024/04/18 06:42:55;;;;;;;3.97;1.38;;;;;;;;;;5464244;26;19994;-68
2024/04/18 06:45:22;;;;;;;3.33;1.00;;;;;;;;;;5427461;26;20021;-68
2024/04/18 06:47:48;;;;;;;3.92;1.85;;;;;;;;;;5452582;26;19998;-69
2024/04/18 06:50:18;;;;;;;3.80;1.45;;;;;;;;;;5406608;26;20010;-69
2024/04/18 06:52:48;;;;;;;2.30;1.20;;;;;;;;;;5435446;26;20443;-70
2024/04/18 06:55:14;;;;;;;3.22;1.40;;;;;;;;;;5451521;26;20033;-69
2024/04/18 06:57:41;;;;;;;7.30;1.70;;;;;;;;;;5444985;26;20071;-68
2024/04/18 07:00:10;;;;;;;4.88;1.50;;;;;;;;;;5449325;26;20002;-68
2024/04/18 07:02:37;;;;;;;3.08;0.90;;;;;;;;;;5424799;26;19998;-69
2024/04/18 07:05:04;;;;;;;2.67;0.95;;;;;;;;;;5409897;26;20002;-69
2024/04/18 07:07:30;;;;;;;4.22;1.38;;;;;;;;;;5455946;26;20703;-69
2024/04/18 07:09:57;;;;;;;3.78;1.50;;;;;;;;;;5453136;26;19998;-68
2024/04/18 07:12:23;;;;;;;1.88;1.10;;;;;;;;;;5442783;26;20009;-69
2024/04/18 07:14:50;;;;;;;3.28;1.40;;;;;;;;;;5441861;26;20006;-69
2024/04/18 07:17:16;;;;;;;5.85;1.33;;;;;;;;;;5440668;26;20023;-69
2024/04/18 07:19:43;;;;;;;3.47;1.20;;;;;;;;;;5445895;26;20760;-68
2024/04/18 07:22:10;;;;;;;4.78;1.10;;;;;;;;;;5468555;26;20013;-68
2024/04/18 07:24:36;;;;;;;3.17;1.00;;;;;;;;;;5476863;26;20002;-68
2024/04/18 07:27:03;;;;;;;5.88;1.50;;;;;;;;;;5441692;26;20013;-69
2024/04/18 07:29:29;;;;;;;5.00;1.30;;;;;;;;;;5414502;26;20014;-69
2024/04/18 07:31:56;;;;;;;3.75;1.10;;;;;;;;;;5441960;26;20002;-69
2024/04/18 07:34:23;;;;;;;3.80;1.10;;;;;;;;;;5437202;26;20003;-68
2024/04/18 07:36:49;;;;;;;3.88;0.80;;;;;;;;;;5470258;26;20002;-68
2024/04/18 07:39:16;;;;;;;2.90;0.90;;;;;;;;;;5445820;26;20049;-68
2024/04/18 07:41:42;;;;;;;4.55;1.00;;;;;;;;;;5469996;26;19998;-68
2024/04/18 07:44:11;;;;;;;3.97;0.90;;;;;;;;;;5418925;26;20003;-68
2024/04/18 07:46:39;;;;;;;4.70;1.38;;;;;;;;;;5442084;26;20002;-68
2024/04/18 07:49:07;;;;;;;2.97;1.20;;;;;;;;;;5444073;26;20539;-71
2024/04/18 07:51:33;;;;;;;3.25;1.30;;;;;;;;;;5462563;26;19999;-69
2024/04/18 07:54:00;;;;;;;5.00;1.33;;;;;;;;;;5457652;26;20907;-68
2024/04/18 07:56:27;;;;;;;2.58;1.23;;;;;;;;;;5430121;26;19998;-69
2024/04/18 07:58:54;;;;;;;7.82;1.50;;;;;;;;;;5434362;26;20031;-69
2024/04/18 08:01:22;;;;;;;6.30;1.50;;;;;;;;;;5455395;26;20002;-69
2024/04/18 08:03:51;;;;;;;4.88;1.77;;;;;;;;;;5477902;26;20026;-68
2024/04/18 08:06:37;;;;;;;6.70;1.90;;;;;;;;;;5454301;26;20506;-69
2024/04/18 08:09:08;;;;;;;3.83;1.48;;;;;;;;;;5448096;26;20009;-68
2024/04/18 08:11:40;;;;;;;3.17;1.30;;;;;;;;;;5423714;26;19998;-70
2024/04/18 08:14:17;;;;;;;4.28;1.23;;;;;;;;;;5450973;26;19998;-70
2024/04/18 08:16:50;;;;;;;3.05;1.20;;;;;;;;;;5479063;26;20016;-68
2024/04/18 08:19:17;;;;;;;1.60;1.10;;;;;;;;;;5432599;26;20003;-70
2024/04/18 08:21:43;;;;;;;4.63;1.00;;;;;;;;;;5441912;26;20462;-72
2024/04/18 08:24:18;;;;;;;4.43;1.10;;;;;;;;;;5454382;26;20010;-75
2024/04/18 08:26:45;;;;;;;4.20;1.00;;;;;;;;;;5433767;26;20073;-75
2024/04/18 08:29:11;;;;;;;3.22;1.10;;;;;;;;;;5439748;26;20009;-71
2024/04/18 08:31:38;;;;;;;4.18;1.10;;;;;;;;;;5463377;26;19999;-70
2024/04/18 08:34:04;;;;;;;3.47;0.75;;;;;;;;;;5420479;26;20013;-73
2024/04/18 08:36:43;;;;;;;2.15;0.63;;;;;;;;;;5436757;26;20015;-76
2024/04/18 08:39:09;;;;;;;3.88;1.10;;;;;;;;;;5458810;26;20382;-76
2024/04/18 08:41:36;;;;;;;3.88;1.05;;;;;;;;;;5423392;26;20002;-74
2024/04/18 08:44:08;;;;;;;3.03;1.15;;;;;;;;;;5435068;26;20002;-75
2024/04/18 08:46:38;;;;;;;3.95;0.80;;;;;;;;;;5450411;26;20098;-73
2024/04/18 08:49:06;;;;;;;5.28;1.00;;;;;;;;;;5431383;26;20009;-72
2024/04/18 08:51:37;;;;;;;2.03;1.00;;;;;;;;;;5475014;26;20006;-71
2024/04/18 08:54:04;;;;;;;6.22;1.10;;;;;;;;;;5422670;26;20231;-73
2024/04/18 08:56:31;;;;;;;3.47;0.93;;;;;;;;;;5436750;26;20013;-73
2024/04/18 08:58:58;;;;;;;3.22;0.85;;;;;;;;;;5441831;26;19999;-73
2024/04/18 09:01:25;;;;;;;4.72;1.20;;;;;;;;;;5435289;26;20439;-78
2024/04/18 09:03:54;;;;;;;2.05;0.80;;;;;;;;;;5480372;26;20009;-68
2024/04/18 09:06:20;;;;;;;3.25;0.63;;;;;;;;;;5440736;26;20014;-71
2024/04/18 09:08:53;;;;;;;2.40;0.50;;;;;;;;;;5432414;26;20003;-69
2024/04/18 09:11:20;;;;;;;3.05;0.80;;;;;;;;;;5446525;26;20049;-71
2024/04/18 09:13:47;;;;;;;4.07;1.00;;;;;;;;;;5432983;26;20018;-69
2024/04/18 09:16:14;;;;;;;3.35;0.80;;;;;;;;;;5444289;26;19998;-71
2024/04/18 09:18:40;;;;;;;2.42;0.65;;;;;;;;;;5436589;26;20087;-70
2024/04/18 09:21:09;;;;;;;3.95;0.85;;;;;;;;;;5443739;26;20802;-69
2024/04/18 09:23:36;;;;;;;0.95;0.63;;;;;;;;;;5457428;26;20075;-69
2024/04/18 09:26:06;;;;;;;2.92;0.80;;;;;;;;;;5429243;26;19998;-69
2024/04/18 09:28:33;;;;;;;1.75;0.52;;;;;;;;;;5470757;26;21259;-68
2024/04/18 09:30:59;;;;;;;1.60;0.50;;;;;;;;;;5431817;26;20053;-68
2024/04/18 09:33:32;;;;;;;4.03;0.60;;;;;;;;;;5463080;26;20002;-68
2024/04/18 09:36:00;;;;;;;1.23;0.70;;;;;;;;;;5453072;26;20003;-69
2024/04/18 09:38:33;;;;;;;1.65;0.50;;;;;;;;;;5445638;26;20068;-69
2024/04/18 09:41:14;;;;;;;2.00;0.70;;;;;;;;;;5455069;26;20010;-69
2024/04/18 09:43:48;;;;;;;3.05;0.82;;;;;;;;;;5464621;26;19998;-69
2024/04/18 09:46:15;;;;;;;1.70;0.50;;;;;;;;;;5451785;26;20003;-69
2024/04/18 09:48:43;;;;;;;3.67;0.70;;;;;;;;;;5450797;26;20006;-68
2024/04/18 09:51:10;;;;;;;3.08;0.85;;;;;;;;;;5462498;26;20843;-69
2024/04/18 09:53:37;;;;;;;3.22;0.80;;;;;;;;;;5410866;26;19999;-69
2024/04/18 09:56:04;;;;;;;3.95;0.90;;;;;;;;;;5453287;26;20006;-70
2024/04/18 09:58:31;;;;;;;2.45;0.60;;;;;;;;;;5423076;26;20002;-69
2024/04/18 10:00:58;;;;;;;1.53;0.70;;;;;;;;;;5470388;26;20461;-69
2024/04/18 10:03:27;;;;;;;1.58;0.60;;;;;;;;;;5473094;26;20272;-70
2024/04/18 10:05:55;;;;;;;2.50;0.80;;;;;;;;;;5446400;26;20010;-70
2024/04/18 10:08:22;;;;;;;;;;;;;;;;;;5448312;26;20233;-74
2024/04/18 10:10:49;;;;;;;5.78;1.40;;;;;;;;;;5464046;26;19938;-68
2024/04/18 10:13:16;;;;;;;5.10;1.95;;;;;;;;;;5459416;26;20478;-74
2024/04/18 10:15:44;;;;;;;2.63;0.73;;;;;;;;;;5439541;26;20015;-75
2024/04/18 10:18:12;;;;;;;1.17;0.75;;;;;;;;;;5427783;26;20052;-76
2024/04/18 10:20:41;;;;;;;2.90;0.95;;;;;;;;;;5463573;26;20006;-72
2024/04/18 10:23:07;;;;;;;;;;;;;;;;;;5440963;26;19994;-75
2024/04/18 10:25:37;;;;;;;2.75;0.80;;;;;;;;;;5430302;26;19931;-75
2024/04/18 10:28:16;;;;;;;1.58;0.70;;;;;;;;;;5465340;26;19994;-73
2024/04/18 10:30:42;;;;;;;1.48;0.63;;;;;;;;;;5434201;26;20003;-72
2024/04/18 10:33:09;;;;;;;2.38;0.65;;;;;;;;;;5428726;26;20054;-74
2024/04/18 10:35:36;;;;;;;3.35;1.00;;;;;;;;;;5461955;26;20030;-74
2024/04/18 10:38:03;;;;;;;2.85;0.90;;;;;;;;;;5442890;26;19999;-74
2024/04/18 10:40:31;;;;;;;2.78;0.77;;;;;;;;;;5477700;26;20099;-74
2024/04/18 10:43:14;;;;;;;4.85;1.13;;;;;;;;;;5467025;26;20010;-75
2024/04/18 10:45:44;;;;;;;2.65;0.90;;;;;;;;;;5478225;26;20013;-75
2024/04/18 10:48:11;;;;;;;3.63;0.80;;;;;;;;;;5414255;26;20003;-72
2024/04/18 10:50:38;;;;;;;1.92;0.70;;;;;;;;;;5445919;26;20035;-74
2024/04/18 10:53:05;;;;;;;2.13;0.75;;;;;;;;;;5458986;26;20036;-74
2024/04/18 10:55:33;;;;;;;1.75;0.80;;;;;;;;;;5474053;26;20480;-73
2024/04/18 10:57:59;;;;;;;4.25;0.88;;;;;;;;;;5460422;26;20075;-74
2024/04/18 11:00:27;;;;;;;4.45;0.63;;;;;;;;;;5432821;26;20007;-73
2024/04/18 11:02:56;;;;;;;2.10;0.95;;;;;;;;;;5469910;26;19998;-74
2024/04/18 11:05:23;;;;;;;3.10;1.10;;;;;;;;;;5448595;26;20003;-76
2024/04/18 11:07:50;;;;;;;6.13;1.30;;;;;;;;;;5430187;26;20014;-74
2024/04/18 11:10:16;;;;;;;1.85;0.80;;;;;;;;;;5456702;26;20593;-74
2024/04/18 11:12:43;;;;;;;4.38;0.85;;;;;;;;;;5465479;26;19998;-68
2024/04/18 11:15:10;;;;;;;1.25;0.60;;;;;;;;;;5455077;26;20613;-69
2024/04/18 11:17:36;;;;;;;1.73;0.82;;;;;;;;;;5406754;26;20003;-70
2024/04/18 11:20:04;;;;;;;1.60;0.50;;;;;;;;;;5468755;26;20006;-69
2024/04/18 11:22:30;;;;;;;2.45;0.63;;;;;;;;;;5436902;26;20019;-73
2024/04/18 11:24:59;;;;;;;0.77;0.70;;;;;;;;;;5423362;26;20003;-68
2024/04/18 11:27:25;;;;;;;2.13;0.70;;;;;;;;;;5415511;26;20026;-69
2024/04/18 11:29:52;;;;;;;0.77;0.60;;;;;;;;;;5447704;26;20018;-69
2024/04/18 11:32:19;;;;;;;2.92;1.00;;;;;;;;;;5460807;26;20010;-69
2024/04/18 11:34:47;;;;;;;1.90;0.80;;;;;;;;;;5439360;26;20009;-69
2024/04/18 11:37:22;;;;;;;1.90;0.82;;;;;;;;;;5442601;26;20010;-69
2024/04/18 11:39:48;;;;;;;1.85;0.63;;;;;;;;;;5474838;26;19998;-68
2024/04/18 11:42:15;;;;;;;1.85;0.47;;;;;;;;;;5424483;26;20002;-69
2024/04/18 11:44:42;;;;;;;1.63;0.60;;;;;;;;;;5460227;26;20095;-68
2024/04/18 11:47:08;;;;;;;2.63;0.70;;;;;;;;;;5460435;26;20002;-68
2024/04/18 11:49:35;;;;;;;2.50;0.80;;;;;;;;;;5440066;26;19998;-69
2024/04/18 11:52:01;;;;;;;3.50;0.60;;;;;;;;;;5476332;26;20369;-68
2024/04/18 11:54:28;;;;;;;3.65;0.80;;;;;;;;;;5461948;26;20002;-69
2024/04/18 11:56:55;;;;;;;3.70;0.70;;;;;;;;;;5458965;26;20015;-69
2024/04/18 11:59:21;;;;;;;2.70;0.88;;;;;;;;;;5432792;26;20010;-69
2024/04/18 12:01:48;;;;;;;2.13;0.55;;;;;;;;;;5472481;26;20066;-69
2024/04/18 12:04:14;;;;;;;0.68;0.52;;;;;;;;;;5469246;26;20002;-70
2024/04/18 12:06:41;;;;;;;2.15;0.47;;;;;;;;;;5447720;26;20010;-71
2024/04/18 12:09:08;;;;;;;1.27;0.60;;;;;;;;;;5451097;26;20019;-67
2024/04/18 12:11:34;;;;;;;5.93;1.23;;;;;;;;;;5456263;26;20498;-70
2024/04/18 12:14:01;;;;;;;5.50;0.80;;;;;;;;;;5471780;26;20044;-71
2024/04/18 12:16:28;;;;;;;3.15;1.00;;;;;;;;;;5460984;26;20010;-71
2024/04/18 12:18:55;;;;;;;2.28;0.68;;;;;;;;;;5426212;26;20016;-70
2024/04/18 12:21:22;;;;;;;1.63;0.70;;;;;;;;;;5442833;26;19999;-73
2024/04/18 12:23:48;;;;;;;4.30;0.88;;;;;;;;;;5445612;26;20013;-72
2024/04/18 12:26:15;;;;;;;3.55;0.85;;;;;;;;;;5446876;26;20074;-72
2024/04/18 12:28:41;;;;;;;2.88;0.80;;;;;;;;;;5435740;26;20003;-73
2024/04/18 12:31:08;;;;;;;2.90;0.90;;;;;;;;;;5400431;26;19999;-73
2024/04/18 12:33:34;;;;;;;9.60;0.80;;;;;;;;;;5468736;26;20003;-72
2024/04/18 12:36:01;;;;;;;2.17;0.60;;;;;;;;;;5449658;26;20030;-72
2024/04/18 12:38:28;;;;;;;5.13;0.68;;;;;;;;;;5467105;26;20017;-72
2024/04/18 12:40:54;;;;;;;3.10;0.80;;;;;;;;;;5434482;26;20021;-74
2024/04/18 12:43:21;;;;;;;7.93;1.73;;;;;;;;;;5470757;26;20010;-73
2024/04/18 12:45:47;;;;;;;6.20;0.60;;;;;;;;;;5470373;26;20002;-71
2024/04/18 12:48:14;;;;;;;2.05;0.73;;;;;;;;;;5465948;26;20002;-76
2024/04/18 12:50:41;;;;;;;5.50;0.85;;;;;;;;;;5453740;26;19998;-73
2024/04/18 12:53:07;;;;;;;3.65;0.75;;;;;;;;;;5468427;26;20038;-71
2024/04/18 12:55:35;;;;;;;3.65;0.77;;;;;;;;;;5466479;26;20573;-72
2024/04/18 12:58:02;;;;;;;2.38;0.70;;;;;;;;;;5444809;26;20002;-72
2024/04/18 13:00:28;;;;;;;5.35;0.82;;;;;;;;;;5425911;26;20003;-72
2024/04/18 13:02:55;;;;;;;5.00;0.98;;;;;;;;;;5442146;26;20426;-72
2024/04/18 13:05:22;;;;;;;1.75;0.90;;;;;;;;;;5439186;26;20011;-73
2024/04/18 13:07:49;;;;;;;4.43;0.77;;;;;;;;;;5419110;26;19998;-71
2024/04/18 13:10:18;;;;;;;2.42;0.85;;;;;;;;;;5473817;26;20766;-71
2024/04/18 13:12:44;;;;;;;;;;;;;;;;;;5462417;26;20778;-72
2024/04/18 13:15:10;;;;;;;3.10;0.73;;;;;;;;;;5417364;26;19997;-71
2024/04/18 13:17:37;;;;;;;4.85;1.10;;;;;;;;;;5456534;26;20384;-72
2024/04/18 13:20:04;;;;;;;5.72;0.85;;;;;;;;;;5444931;26;20003;-72
2024/04/18 13:22:31;;;;;;;2.20;0.82;;;;;;;;;;5433427;26;20065;-72
2024/04/18 13:24:57;;;;;;;3.15;0.90;;;;;;;;;;5470615;26;20017;-70
2024/04/18 13:27:25;;;;;;;5.07;1.10;;;;;;;;;;5415438;26;20002;-71
2024/04/18 13:29:52;;;;;;;3.75;0.80;;;;;;;;;;5438921;26;20080;-71
2024/04/18 13:32:19;;;;;;;2.53;0.70;;;;;;;;;;5441803;26;20471;-72
2024/04/18 13:34:47;;;;;;;7.22;1.20;;;;;;;;;;5458210;26;20010;-71
2024/04/18 13:37:14;;;;;;;4.22;0.90;;;;;;;;;;5462762;26;20007;-72
2024/04/18 13:39:44;;;;;;;2.35;1.00;;;;;;;;;;5476114;26;20697;-71
2024/04/18 13:42:11;;;;;;;3.88;1.00;;;;;;;;;;5455705;26;20032;-71
2024/04/18 13:44:37;;;;;;;4.03;1.08;;;;;;;;;;5470689;26;20005;-71
2024/04/18 13:47:04;;;;;;;2.92;0.80;;;;;;;;;;5412431;26;20018;-71
2024/04/18 13:49:31;;;;;;;4.30;1.17;;;;;;;;;;5472887;26;20491;-70
2024/04/18 13:51:58;;;;;;;3.17;0.90;;;;;;;;;;5449148;26;19998;-71
2024/04/18 13:54:25;;;;;;;3.65;0.80;;;;;;;;;;5433682;26;19994;-72
2024/04/18 13:56:52;;;;;;;3.22;0.98;;;;;;;;;;5446613;26;20002;-71
2024/04/18 13:59:19;;;;;;;3.45;1.05;;;;;;;;;;5404257;26;20017;-71
2024/04/18 14:01:45;;;;;;;2.53;0.80;;;;;;;;;;5462470;26;20002;-71
2024/04/18 14:04:12;;;;;;;3.65;0.90;;;;;;;;;;5453305;26;20070;-71
2024/04/18 14:06:38;;;;;;;3.35;0.90;;;;;;;;;;5452929;26;20451;-72
2024/04/18 14:09:06;;;;;;;3.88;1.10;;;;;;;;;;5449949;26;20044;-71
2024/04/18 14:11:36;;;;;;;4.75;1.00;;;;;;;;;;5441154;26;19999;-72
2024/04/18 14:14:02;;;;;;;4.18;0.95;;;;;;;;;;5443336;26;20010;-71
2024/04/18 14:19:16;;;;;;;4.47;0.90;;;;;;;;;;5441718;26;20469;-71
2024/04/18 14:21:43;;;;;;;3.03;0.90;;;;;;;;;;5444816;26;20002;-73
2024/04/18 14:24:10;;;;;;;2.25;0.90;;;;;;;;;;5437477;26;20013;-72
2024/04/18 14:26:37;;;;;;;5.60;0.87;;;;;;;;;;5453689;26;19998;-72
2024/04/18 14:29:03;;;;;;;5.45;1.00;;;;;;;;;;5421903;26;20011;-71
2024/04/18 14:31:30;;;;;;;4.25;1.00;;;;;;;;;;5404945;26;20019;-71
2024/04/18 14:33:56;;;;;;;3.78;0.80;;;;;;;;;;5424163;26;20003;-71
2024/04/18 14:36:23;;;;;;;4.35;0.90;;;;;;;;;;5436450;26;19999;-71
2024/04/18 14:38:50;;;;;;;1.35;0.70;;;;;;;;;;5398150;26;20019;-71
2024/04/18 14:41:16;;;;;;;3.13;1.00;;;;;;;;;;5410762;26;20396;-71
2024/04/18 14:43:43;;;;;;;2.88;0.80;;;;;;;;;;5437944;26;20518;-71
2024/04/18 14:46:09;;;;;;;2.42;0.70;;;;;;;;;;5412587;26;20018;-72
2024/04/18 14:48:37;;;;;;;2.72;0.82;;;;;;;;;;5410650;26;20447;-72